Alpine Persefone — A8MS7 — position and weather

sailwx.info

Track history (hours):
 
Tides and Currents Weather Stations Pressure Air Temp Water Temp Dewpoint Dewpoint Depression Visibility Wind Speed Wind Dir Waves Ship Positions

Alpine Persefone

Last reported at 2016-Dec-19 01:32 UTC. Time now 2017-Mar-23 02:04 UTC.
Position N 01°56' E 102°18'.
Warning: this ship's position is months out of date.

Length 226 m; draft 8.2 m.

Type: Tanker. MMSI: 636013411.

Date/timePositionNaut miles runAvg speedWind from/ knotsBaromVisibWave heightAir tempDewpointWater temp
2016-Dec-19 01:32N 01°56' E 102°18'1212.0
2016-Dec-19 00:33N 01°51' E 102°29'1512.9
2016-Dec-18 23:23N 01°45' E 102°42'67 1.5
2016-Dec-17 02:19N 01°10' E 103°40'9 8.9
2016-Dec-17 01:19N 01°13' E 103°49'0 0.1
2016-Dec-17 00:13N 01°13' E 103°49'0 0.1
2016-Dec-16 23:07N 01°13' E 103°49'0 0.0
2016-Dec-16 20:28N 01°13' E 103°49'0 0.0
2016-Dec-16 19:25N 01°13' E 103°49'0 0.0
2016-Dec-16 18:31N 01°13' E 103°49'0 0.0
2016-Dec-16 15:07N 01°13' E 103°49'0 0.2
2016-Dec-16 14:33N 01°13' E 103°49'6 5.8
2016-Dec-16 13:31N 01°17' E 103°44'1 0.0
2016-Dec-15 03:07N 01°17' E 103°43'0 0.3
2016-Dec-15 02:32N 01°18' E 103°44'7 6.7
2016-Dec-15 01:34N 01°13' E 103°48'0 0.1
2016-Dec-14 21:24N 01°13' E 103°49'0 0.1
2016-Dec-14 20:24N 01°13' E 103°49'0 0.0
2016-Dec-14 19:24N 01°13' E 103°49'2 0.5
2016-Dec-14 15:33N 01°14' E 103°47'81 8.1
2016-Dec-14 05:33N 01°46' E 102°32'1211.5
2016-Dec-14 04:33N 01°51' E 102°21'  
Track history (hours):
 
Tides and Currents Weather Stations Pressure Air Temp Water Temp Dewpoint Dewpoint Depression Visibility Wind Speed Wind Dir Waves Ship Positions

Alpine Persefone

Last reported at 2016-Dec-19 01:32 UTC. Time now 2017-Mar-23 02:04 UTC.
Position N 01°56' E 102°18'.
Warning: this ship's position is months out of date.

Length 226 m; draft 8.2 m.

Type: Tanker. MMSI: 636013411.

Date/timePositionNaut miles runAvg speedWind from/ knotsBaromVisibWave heightAir tempDewpointWater temp
2016-Dec-19 01:32N 01°56' E 102°18'1212.0
2016-Dec-19 00:33N 01°51' E 102°29'1512.9
2016-Dec-18 23:23N 01°45' E 102°42'67 1.5
2016-Dec-17 02:19N 01°10' E 103°40'9 8.9
2016-Dec-17 01:19N 01°13' E 103°49'0 0.1
2016-Dec-17 00:13N 01°13' E 103°49'0 0.1
2016-Dec-16 23:07N 01°13' E 103°49'0 0.0
2016-Dec-16 20:28N 01°13' E 103°49'0 0.0
2016-Dec-16 19:25N 01°13' E 103°49'0 0.0
2016-Dec-16 18:31N 01°13' E 103°49'0 0.0
2016-Dec-16 15:07N 01°13' E 103°49'0 0.2
2016-Dec-16 14:33N 01°13' E 103°49'6 5.8
2016-Dec-16 13:31N 01°17' E 103°44'1 0.0
2016-Dec-15 03:07N 01°17' E 103°43'0 0.3
2016-Dec-15 02:32N 01°18' E 103°44'7 6.7
2016-Dec-15 01:34N 01°13' E 103°48'0 0.1
2016-Dec-14 21:24N 01°13' E 103°49'0 0.1
2016-Dec-14 20:24N 01°13' E 103°49'0 0.0
2016-Dec-14 19:24N 01°13' E 103°49'2 0.5
2016-Dec-14 15:33N 01°14' E 103°47'81 8.1
2016-Dec-14 05:33N 01°46' E 102°32'1211.5
2016-Dec-14 04:33N 01°51' E 102°21'  

Dump ship's entire track history